sensor_id;sensor_type;location;lat;lon;timestamp;P1;durP1;ratioP1;P2;durP2;ratioP2
38621;SDS011;24380;51.132;5.360;2023-03-16T00:02:18;8.23;;;5.60;;
38621;SDS011;24380;51.132;5.360;2023-03-16T00:04:46;9.90;;;5.05;;
38621;SDS011;24380;51.132;5.360;2023-03-16T00:07:13;8.53;;;5.08;;
38621;SDS011;24380;51.132;5.360;2023-03-16T00:09:41;9.28;;;5.50;;
38621;SDS011;24380;51.132;5.360;2023-03-16T00:12:13;7.20;;;5.20;;
38621;SDS011;24380;51.132;5.360;2023-03-16T00:14:43;11.55;;;5.20;;
38621;SDS011;24380;51.132;5.360;2023-03-16T00:17:13;8.50;;;5.20;;
38621;SDS011;24380;51.132;5.360;2023-03-16T00:19:49;9.78;;;5.37;;
38621;SDS011;24380;51.132;5.360;2023-03-16T00:22:22;7.22;;;5.30;;
38621;SDS011;24380;51.132;5.360;2023-03-16T00:24:52;7.03;;;5.17;;
38621;SDS011;24380;51.132;5.360;2023-03-16T00:27:21;6.95;;;5.03;;
38621;SDS011;24380;51.132;5.360;2023-03-16T00:29:50;8.73;;;4.90;;
38621;SDS011;24380;51.132;5.360;2023-03-16T00:32:23;7.78;;;4.72;;
38621;SDS011;24380;51.132;5.360;2023-03-16T00:34:52;10.60;;;5.17;;
38621;SDS011;24380;51.132;5.360;2023-03-16T00:37:21;7.35;;;5.15;;
38621;SDS011;24380;51.132;5.360;2023-03-16T00:39:50;9.58;;;4.55;;
38621;SDS011;24380;51.132;5.360;2023-03-16T00:42:20;8.38;;;5.05;;
38621;SDS011;24380;51.132;5.360;2023-03-16T00:44:50;7.60;;;4.78;;
38621;SDS011;24380;51.132;5.360;2023-03-16T00:47:19;11.48;;;5.10;;
38621;SDS011;24380;51.132;5.360;2023-03-16T00:49:47;6.60;;;4.67;;
38621;SDS011;24380;51.132;5.360;2023-03-16T00:52:14;6.28;;;4.60;;
38621;SDS011;24380;51.132;5.360;2023-03-16T00:54:42;7.35;;;4.95;;
38621;SDS011;24380;51.132;5.360;2023-03-16T00:57:12;6.35;;;4.75;;
38621;SDS011;24380;51.132;5.360;2023-03-16T00:59:43;7.83;;;4.55;;
38621;SDS011;24380;51.132;5.360;2023-03-16T01:02:12;6.25;;;4.72;;
38621;SDS011;24380;51.132;5.360;2023-03-16T01:04:41;10.32;;;4.87;;
38621;SDS011;24380;51.132;5.360;2023-03-16T01:07:10;8.28;;;4.78;;
38621;SDS011;24380;51.132;5.360;2023-03-16T01:09:39;8.28;;;4.65;;
38621;SDS011;24380;51.132;5.360;2023-03-16T01:12:09;5.55;;;4.45;;
38621;SDS011;24380;51.132;5.360;2023-03-16T01:14:42;12.40;;;4.72;;
38621;SDS011;24380;51.132;5.360;2023-03-16T01:17:12;7.25;;;4.33;;
38621;SDS011;24380;51.132;5.360;2023-03-16T01:19:42;12.55;;;4.72;;
38621;SDS011;24380;51.132;5.360;2023-03-16T01:22:10;6.42;;;4.37;;
38621;SDS011;24380;51.132;5.360;2023-03-16T01:24:38;5.78;;;4.10;;
38621;SDS011;24380;51.132;5.360;2023-03-16T01:27:07;7.03;;;4.12;;
38621;SDS011;24380;51.132;5.360;2023-03-16T01:29:35;8.20;;;4.72;;
38621;SDS011;24380;51.132;5.360;2023-03-16T01:32:03;6.85;;;4.53;;
38621;SDS011;24380;51.132;5.360;2023-03-16T01:34:32;7.67;;;4.65;;
38621;SDS011;24380;51.132;5.360;2023-03-16T01:37:00;8.18;;;4.40;;
38621;SDS011;24380;51.132;5.360;2023-03-16T01:39:28;7.30;;;4.60;;
38621;SDS011;24380;51.132;5.360;2023-03-16T01:41:56;5.47;;;4.10;;
38621;SDS011;24380;51.132;5.360;2023-03-16T01:44:24;6.62;;;4.60;;
38621;SDS011;24380;51.132;5.360;2023-03-16T01:46:55;8.48;;;4.62;;
38621;SDS011;24380;51.132;5.360;2023-03-16T01:49:24;6.95;;;4.40;;
38621;SDS011;24380;51.132;5.360;2023-03-16T01:52:10;6.62;;;4.62;;
38621;SDS011;24380;51.132;5.360;2023-03-16T01:54:40;8.38;;;4.53;;
38621;SDS011;24380;51.132;5.360;2023-03-16T01:57:23;6.85;;;4.28;;
38621;SDS011;24380;51.132;5.360;2023-03-16T02:00:14;8.65;;;4.00;;
38621;SDS011;24380;51.132;5.360;2023-03-16T02:02:48;8.23;;;4.50;;
38621;SDS011;24380;51.132;5.360;2023-03-16T02:05:26;7.95;;;4.60;;
38621;SDS011;24380;51.132;5.360;2023-03-16T02:08:00;6.78;;;4.20;;
38621;SDS011;24380;51.132;5.360;2023-03-16T02:10:30;6.75;;;4.37;;
38621;SDS011;24380;51.132;5.360;2023-03-16T02:12:59;6.70;;;4.05;;
38621;SDS011;24380;51.132;5.360;2023-03-16T02:15:27;9.13;;;4.92;;
38621;SDS011;24380;51.132;5.360;2023-03-16T02:17:54;7.53;;;4.70;;
38621;SDS011;24380;51.132;5.360;2023-03-16T02:20:33;7.78;;;4.37;;
38621;SDS011;24380;51.132;5.360;2023-03-16T02:23:19;7.87;;;4.22;;
38621;SDS011;24380;51.132;5.360;2023-03-16T02:28:44;8.65;;;4.15;;
38621;SDS011;24380;51.132;5.360;2023-03-16T02:31:14;6.75;;;4.37;;
38621;SDS011;24380;51.132;5.360;2023-03-16T02:33:42;6.35;;;3.60;;
38621;SDS011;24380;51.132;5.360;2023-03-16T02:36:17;8.45;;;3.90;;
38621;SDS011;24380;51.132;5.360;2023-03-16T02:38:41;6.12;;;4.12;;
38621;SDS011;24380;51.132;5.360;2023-03-16T02:41:18;7.17;;;4.30;;
38621;SDS011;24380;51.132;5.360;2023-03-16T02:43:52;7.75;;;4.30;;
38621;SDS011;24380;51.132;5.360;2023-03-16T02:46:20;7.58;;;4.37;;
38621;SDS011;24380;51.132;5.360;2023-03-16T02:51:41;5.58;;;3.98;;
38621;SDS011;24380;51.132;5.360;2023-03-16T02:56:39;5.67;;;3.95;;
38621;SDS011;24380;51.132;5.360;2023-03-16T02:59:06;5.90;;;4.00;;
38621;SDS011;24380;51.132;5.360;2023-03-16T03:01:34;6.15;;;3.58;;
38621;SDS011;24380;51.132;5.360;2023-03-16T03:04:02;5.80;;;3.83;;
38621;SDS011;24380;51.132;5.360;2023-03-16T03:06:31;5.62;;;3.42;;
38621;SDS011;24380;51.132;5.360;2023-03-16T03:09:00;6.22;;;3.10;;
38621;SDS011;24380;51.132;5.360;2023-03-16T03:11:28;6.97;;;3.62;;
38621;SDS011;24380;51.132;5.360;2023-03-16T03:13:56;6.55;;;3.65;;
38621;SDS011;24380;51.132;5.360;2023-03-16T03:16:24;5.20;;;3.40;;
38621;SDS011;24380;51.132;5.360;2023-03-16T03:18:51;6.22;;;3.65;;
38621;SDS011;24380;51.132;5.360;2023-03-16T03:21:19;5.58;;;3.40;;
38621;SDS011;24380;51.132;5.360;2023-03-16T03:23:49;6.40;;;3.33;;
38621;SDS011;24380;51.132;5.360;2023-03-16T03:26:17;6.92;;;3.70;;
38621;SDS011;24380;51.132;5.360;2023-03-16T03:28:44;7.58;;;3.17;;
38621;SDS011;24380;51.132;5.360;2023-03-16T03:31:18;5.90;;;3.27;;
38621;SDS011;24380;51.132;5.360;2023-03-16T03:33:43;4.33;;;3.00;;
38621;SDS011;24380;51.132;5.360;2023-03-16T03:36:11;5.35;;;3.40;;
38621;SDS011;24380;51.132;5.360;2023-03-16T03:38:39;5.95;;;3.10;;
38621;SDS011;24380;51.132;5.360;2023-03-16T03:41:06;4.87;;;3.17;;
38621;SDS011;24380;51.132;5.360;2023-03-16T03:43:34;4.90;;;3.25;;
38621;SDS011;24380;51.132;5.360;2023-03-16T03:46:02;4.78;;;3.08;;
38621;SDS011;24380;51.132;5.360;2023-03-16T03:48:30;5.55;;;2.85;;
38621;SDS011;24380;51.132;5.360;2023-03-16T03:50:58;5.28;;;2.90;;
38621;SDS011;24380;51.132;5.360;2023-03-16T03:53:26;10.20;;;3.02;;
38621;SDS011;24380;51.132;5.360;2023-03-16T03:55:53;5.35;;;2.98;;
38621;SDS011;24380;51.132;5.360;2023-03-16T03:58:21;6.42;;;2.90;;
38621;SDS011;24380;51.132;5.360;2023-03-16T04:00:48;3.70;;;2.92;;
38621;SDS011;24380;51.132;5.360;2023-03-16T04:03:17;4.60;;;2.65;;
38621;SDS011;24380;51.132;5.360;2023-03-16T04:05:46;8.18;;;3.02;;
38621;SDS011;24380;51.132;5.360;2023-03-16T04:08:13;6.10;;;3.00;;
38621;SDS011;24380;51.132;5.360;2023-03-16T04:10:41;5.05;;;2.77;;
38621;SDS011;24380;51.132;5.360;2023-03-16T04:13:09;5.00;;;2.80;;
38621;SDS011;24380;51.132;5.360;2023-03-16T04:15:37;6.58;;;3.17;;
38621;SDS011;24380;51.132;5.360;2023-03-16T04:18:05;6.83;;;2.92;;
38621;SDS011;24380;51.132;5.360;2023-03-16T04:20:32;4.60;;;3.27;;
38621;SDS011;24380;51.132;5.360;2023-03-16T04:23:00;5.35;;;3.02;;
38621;SDS011;24380;51.132;5.360;2023-03-16T04:25:29;5.17;;;2.90;;
38621;SDS011;24380;51.132;5.360;2023-03-16T04:27:57;6.33;;;3.10;;
38621;SDS011;24380;51.132;5.360;2023-03-16T04:30:24;6.30;;;3.17;;
38621;SDS011;24380;51.132;5.360;2023-03-16T04:32:52;8.03;;;3.45;;
38621;SDS011;24380;51.132;5.360;2023-03-16T04:35:19;7.40;;;3.37;;
38621;SDS011;24380;51.132;5.360;2023-03-16T04:37:47;6.05;;;2.95;;
38621;SDS011;24380;51.132;5.360;2023-03-16T04:40:14;6.33;;;3.10;;
38621;SDS011;24380;51.132;5.360;2023-03-16T04:42:44;7.10;;;3.37;;
38621;SDS011;24380;51.132;5.360;2023-03-16T04:45:13;7.05;;;3.50;;
38621;SDS011;24380;51.132;5.360;2023-03-16T04:47:43;6.08;;;3.52;;
38621;SDS011;24380;51.132;5.360;2023-03-16T04:50:10;7.42;;;3.60;;
38621;SDS011;24380;51.132;5.360;2023-03-16T04:52:38;5.92;;;3.12;;
38621;SDS011;24380;51.132;5.360;2023-03-16T04:55:06;6.83;;;3.55;;
38621;SDS011;24380;51.132;5.360;2023-03-16T04:57:33;6.15;;;3.10;;
38621;SDS011;24380;51.132;5.360;2023-03-16T05:00:01;8.05;;;3.40;;
38621;SDS011;24380;51.132;5.360;2023-03-16T05:02:37;6.33;;;3.17;;
38621;SDS011;24380;51.132;5.360;2023-03-16T05:05:05;5.03;;;3.00;;
38621;SDS011;24380;51.132;5.360;2023-03-16T05:07:33;5.42;;;3.27;;
38621;SDS011;24380;51.132;5.360;2023-03-16T05:10:00;7.05;;;3.27;;
38621;SDS011;24380;51.132;5.360;2023-03-16T05:12:29;7.28;;;3.17;;
38621;SDS011;24380;51.132;5.360;2023-03-16T05:14:56;4.60;;;2.70;;
38621;SDS011;24380;51.132;5.360;2023-03-16T05:17:24;5.92;;;2.60;;
38621;SDS011;24380;51.132;5.360;2023-03-16T05:19:51;5.30;;;2.80;;
38621;SDS011;24380;51.132;5.360;2023-03-16T05:22:19;7.15;;;3.25;;
38621;SDS011;24380;51.132;5.360;2023-03-16T05:24:46;6.12;;;3.08;;
38621;SDS011;24380;51.132;5.360;2023-03-16T05:27:14;4.53;;;2.90;;
38621;SDS011;24380;51.132;5.360;2023-03-16T05:29:41;6.42;;;3.17;;
38621;SDS011;24380;51.132;5.360;2023-03-16T05:32:12;8.80;;;3.22;;
38621;SDS011;24380;51.132;5.360;2023-03-16T05:34:42;4.72;;;3.05;;
38621;SDS011;24380;51.132;5.360;2023-03-16T05:37:09;5.22;;;3.10;;
38621;SDS011;24380;51.132;5.360;2023-03-16T05:39:37;6.28;;;2.92;;
38621;SDS011;24380;51.132;5.360;2023-03-16T05:42:05;7.62;;;3.08;;
38621;SDS011;24380;51.132;5.360;2023-03-16T05:44:33;5.00;;;2.85;;
38621;SDS011;24380;51.132;5.360;2023-03-16T05:47:00;4.90;;;2.87;;
38621;SDS011;24380;51.132;5.360;2023-03-16T05:49:28;4.72;;;3.00;;
38621;SDS011;24380;51.132;5.360;2023-03-16T05:51:56;7.05;;;3.22;;
38621;SDS011;24380;51.132;5.360;2023-03-16T05:54:23;5.20;;;2.90;;
38621;SDS011;24380;51.132;5.360;2023-03-16T05:56:51;12.30;;;3.50;;
38621;SDS011;24380;51.132;5.360;2023-03-16T05:59:19;3.95;;;2.62;;
38621;SDS011;24380;51.132;5.360;2023-03-16T06:01:46;6.72;;;2.92;;
38621;SDS011;24380;51.132;5.360;2023-03-16T06:04:15;6.25;;;2.67;;
38621;SDS011;24380;51.132;5.360;2023-03-16T06:06:42;7.78;;;2.98;;
38621;SDS011;24380;51.132;5.360;2023-03-16T06:09:10;6.05;;;2.83;;
38621;SDS011;24380;51.132;5.360;2023-03-16T06:11:37;5.20;;;2.95;;
38621;SDS011;24380;51.132;5.360;2023-03-16T06:14:05;8.18;;;3.05;;
38621;SDS011;24380;51.132;5.360;2023-03-16T06:16:32;5.15;;;2.95;;
38621;SDS011;24380;51.132;5.360;2023-03-16T06:19:00;6.62;;;3.00;;
38621;SDS011;24380;51.132;5.360;2023-03-16T06:21:28;10.25;;;2.67;;
38621;SDS011;24380;51.132;5.360;2023-03-16T06:23:55;4.97;;;2.92;;
38621;SDS011;24380;51.132;5.360;2023-03-16T06:26:23;7.87;;;2.83;;
38621;SDS011;24380;51.132;5.360;2023-03-16T06:28:50;4.17;;;2.92;;
38621;SDS011;24380;51.132;5.360;2023-03-16T06:31:18;6.55;;;2.92;;
38621;SDS011;24380;51.132;5.360;2023-03-16T06:33:45;5.97;;;3.60;;
38621;SDS011;24380;51.132;5.360;2023-03-16T06:36:13;6.72;;;3.27;;
38621;SDS011;24380;51.132;5.360;2023-03-16T06:38:40;5.62;;;3.08;;
38621;SDS011;24380;51.132;5.360;2023-03-16T06:41:08;5.12;;;2.85;;
38621;SDS011;24380;51.132;5.360;2023-03-16T06:43:36;11.18;;;3.15;;
38621;SDS011;24380;51.132;5.360;2023-03-16T06:46:04;8.60;;;3.30;;
38621;SDS011;24380;51.132;5.360;2023-03-16T06:48:31;9.68;;;2.98;;
38621;SDS011;24380;51.132;5.360;2023-03-16T06:50:59;5.97;;;3.15;;
38621;SDS011;24380;51.132;5.360;2023-03-16T06:53:26;4.42;;;2.75;;
38621;SDS011;24380;51.132;5.360;2023-03-16T06:55:54;7.87;;;2.70;;
38621;SDS011;24380;51.132;5.360;2023-03-16T06:58:22;5.45;;;2.83;;
38621;SDS011;24380;51.132;5.360;2023-03-16T07:00:49;3.33;;;2.52;;
38621;SDS011;24380;51.132;5.360;2023-03-16T07:03:18;7.15;;;2.33;;
38621;SDS011;24380;51.132;5.360;2023-03-16T07:05:46;6.40;;;2.65;;
38621;SDS011;24380;51.132;5.360;2023-03-16T07:08:14;5.15;;;2.62;;
38621;SDS011;24380;51.132;5.360;2023-03-16T07:10:41;5.47;;;2.42;;
38621;SDS011;24380;51.132;5.360;2023-03-16T07:13:08;4.97;;;2.35;;
38621;SDS011;24380;51.132;5.360;2023-03-16T07:15:36;4.35;;;2.60;;
38621;SDS011;24380;51.132;5.360;2023-03-16T07:18:04;3.08;;;1.92;;
38621;SDS011;24380;51.132;5.360;2023-03-16T07:20:31;4.22;;;1.92;;
38621;SDS011;24380;51.132;5.360;2023-03-16T07:23:00;4.95;;;2.42;;
38621;SDS011;24380;51.132;5.360;2023-03-16T07:25:27;2.83;;;1.98;;
38621;SDS011;24380;51.132;5.360;2023-03-16T07:27:55;4.15;;;1.98;;
38621;SDS011;24380;51.132;5.360;2023-03-16T07:30:22;5.22;;;2.30;;
38621;SDS011;24380;51.132;5.360;2023-03-16T07:32:50;4.22;;;2.12;;
38621;SDS011;24380;51.132;5.360;2023-03-16T07:35:18;5.80;;;2.45;;
38621;SDS011;24380;51.132;5.360;2023-03-16T07:37:46;3.98;;;1.95;;
38621;SDS011;24380;51.132;5.360;2023-03-16T07:40:15;5.40;;;2.20;;
38621;SDS011;24380;51.132;5.360;2023-03-16T07:42:43;4.17;;;2.02;;
38621;SDS011;24380;51.132;5.360;2023-03-16T07:45:10;5.28;;;2.20;;
38621;SDS011;24380;51.132;5.360;2023-03-16T07:47:39;3.65;;;2.20;;
38621;SDS011;24380;51.132;5.360;2023-03-16T07:50:07;4.45;;;2.20;;
38621;SDS011;24380;51.132;5.360;2023-03-16T07:52:36;3.72;;;2.10;;
38621;SDS011;24380;51.132;5.360;2023-03-16T07:55:04;6.20;;;2.00;;
38621;SDS011;24380;51.132;5.360;2023-03-16T07:57:32;4.42;;;2.30;;
38621;SDS011;24380;51.132;5.360;2023-03-16T08:00:00;4.80;;;2.30;;
38621;SDS011;24380;51.132;5.360;2023-03-16T08:02:29;3.17;;;2.05;;
38621;SDS011;24380;51.132;5.360;2023-03-16T08:04:57;4.83;;;2.25;;
38621;SDS011;24380;51.132;5.360;2023-03-16T08:07:24;4.53;;;2.37;;
38621;SDS011;24380;51.132;5.360;2023-03-16T08:09:52;4.67;;;2.15;;
38621;SDS011;24380;51.132;5.360;2023-03-16T08:12:19;6.60;;;2.42;;
38621;SDS011;24380;51.132;5.360;2023-03-16T08:14:47;6.03;;;2.67;;
38621;SDS011;24380;51.132;5.360;2023-03-16T08:17:15;3.55;;;2.17;;
38621;SDS011;24380;51.132;5.360;2023-03-16T08:19:42;4.65;;;2.62;;
38621;SDS011;24380;51.132;5.360;2023-03-16T08:22:10;5.35;;;2.80;;
38621;SDS011;24380;51.132;5.360;2023-03-16T08:24:38;5.92;;;3.10;;
38621;SDS011;24380;51.132;5.360;2023-03-16T08:27:07;4.40;;;2.75;;
38621;SDS011;24380;51.132;5.360;2023-03-16T08:29:34;4.00;;;2.80;;
38621;SDS011;24380;51.132;5.360;2023-03-16T08:32:02;5.55;;;3.02;;
38621;SDS011;24380;51.132;5.360;2023-03-16T08:34:30;6.53;;;3.10;;
38621;SDS011;24380;51.132;5.360;2023-03-16T08:36:58;5.78;;;3.00;;
38621;SDS011;24380;51.132;5.360;2023-03-16T08:39:25;4.83;;;3.15;;
38621;SDS011;24380;51.132;5.360;2023-03-16T08:41:53;5.25;;;2.92;;
38621;SDS011;24380;51.132;5.360;2023-03-16T08:44:22;5.97;;;3.00;;
38621;SDS011;24380;51.132;5.360;2023-03-16T08:46:50;7.70;;;2.98;;
38621;SDS011;24380;51.132;5.360;2023-03-16T08:49:18;6.40;;;3.00;;
38621;SDS011;24380;51.132;5.360;2023-03-16T08:51:45;8.15;;;3.35;;
38621;SDS011;24380;51.132;5.360;2023-03-16T08:54:13;4.22;;;2.75;;
38621;SDS011;24380;51.132;5.360;2023-03-16T08:56:41;5.40;;;2.90;;
38621;SDS011;24380;51.132;5.360;2023-03-16T08:59:09;4.80;;;2.95;;
38621;SDS011;24380;51.132;5.360;2023-03-16T09:01:36;11.00;;;3.05;;
38621;SDS011;24380;51.132;5.360;2023-03-16T09:04:05;7.12;;;2.70;;
38621;SDS011;24380;51.132;5.360;2023-03-16T09:06:32;3.20;;;2.42;;
38621;SDS011;24380;51.132;5.360;2023-03-16T09:09:00;4.05;;;2.50;;
38621;SDS011;24380;51.132;5.360;2023-03-16T09:11:29;3.05;;;2.10;;
38621;SDS011;24380;51.132;5.360;2023-03-16T09:13:58;8.33;;;2.72;;
38621;SDS011;24380;51.132;5.360;2023-03-16T09:16:26;4.55;;;2.37;;
38621;SDS011;24380;51.132;5.360;2023-03-16T09:18:55;4.55;;;2.42;;
38621;SDS011;24380;51.132;5.360;2023-03-16T09:21:23;8.87;;;2.77;;
38621;SDS011;24380;51.132;5.360;2023-03-16T09:23:50;4.20;;;2.65;;
38621;SDS011;24380;51.132;5.360;2023-03-16T09:26:19;6.50;;;2.58;;
38621;SDS011;24380;51.132;5.360;2023-03-16T09:28:47;7.20;;;2.37;;
38621;SDS011;24380;51.132;5.360;2023-03-16T09:31:16;6.08;;;2.60;;
38621;SDS011;24380;51.132;5.360;2023-03-16T09:33:44;5.47;;;2.30;;
38621;SDS011;24380;51.132;5.360;2023-03-16T09:36:13;2.92;;;1.85;;
38621;SDS011;24380;51.132;5.360;2023-03-16T09:38:41;4.85;;;2.25;;
38621;SDS011;24380;51.132;5.360;2023-03-16T09:46:38;6.70;;;1.98;;
38621;SDS011;24380;51.132;5.360;2023-03-16T09:49:03;3.42;;;1.90;;
38621;SDS011;24380;51.132;5.360;2023-03-16T09:51:35;4.62;;;2.30;;
38621;SDS011;24380;51.132;5.360;2023-03-16T09:54:08;2.30;;;1.72;;
38621;SDS011;24380;51.132;5.360;2023-03-16T09:56:40;7.30;;;2.30;;
38621;SDS011;24380;51.132;5.360;2023-03-16T09:59:10;5.25;;;2.25;;
38621;SDS011;24380;51.132;5.360;2023-03-16T10:04:37;4.17;;;2.00;;
38621;SDS011;24380;51.132;5.360;2023-03-16T10:07:24;3.25;;;2.20;;
38621;SDS011;24380;51.132;5.360;2023-03-16T10:10:17;2.70;;;2.20;;
38621;SDS011;24380;51.132;5.360;2023-03-16T10:12:49;2.47;;;1.75;;
38621;SDS011;24380;51.132;5.360;2023-03-16T10:15:21;3.12;;;1.90;;
38621;SDS011;24380;51.132;5.360;2023-03-16T10:20:26;3.55;;;3.25;;
38621;SDS011;24380;51.132;5.360;2023-03-16T10:22:57;5.35;;;1.82;;
38621;SDS011;24380;51.132;5.360;2023-03-16T10:28:16;3.42;;;1.95;;
38621;SDS011;24380;51.132;5.360;2023-03-16T10:30:48;3.87;;;2.02;;
38621;SDS011;24380;51.132;5.360;2023-03-16T10:33:21;8.35;;;2.17;;
38621;SDS011;24380;51.132;5.360;2023-03-16T10:38:27;6.15;;;2.05;;
38621;SDS011;24380;51.132;5.360;2023-03-16T10:40:59;3.33;;;1.85;;
38621;SDS011;24380;51.132;5.360;2023-03-16T10:43:27;3.15;;;1.95;;
38621;SDS011;24380;51.132;5.360;2023-03-16T10:45:57;3.75;;;1.92;;
38621;SDS011;24380;51.132;5.360;2023-03-16T10:48:26;3.00;;;2.00;;
38621;SDS011;24380;51.132;5.360;2023-03-16T10:50:57;6.25;;;1.90;;
38621;SDS011;24380;51.132;5.360;2023-03-16T10:56:07;4.35;;;2.08;;
38621;SDS011;24380;51.132;5.360;2023-03-16T11:00:58;3.62;;;1.80;;
38621;SDS011;24380;51.132;5.360;2023-03-16T11:03:27;3.15;;;1.85;;
38621;SDS011;24380;51.132;5.360;2023-03-16T11:06:01;2.90;;;1.77;;
38621;SDS011;24380;51.132;5.360;2023-03-16T11:08:31;3.70;;;1.85;;
38621;SDS011;24380;51.132;5.360;2023-03-16T11:11:17;4.35;;;1.60;;
38621;SDS011;24380;51.132;5.360;2023-03-16T11:13:49;6.50;;;2.15;;
38621;SDS011;24380;51.132;5.360;2023-03-16T11:16:32;2.40;;;1.57;;
38621;SDS011;24380;51.132;5.360;2023-03-16T11:19:16;3.17;;;1.80;;
38621;SDS011;24380;51.132;5.360;2023-03-16T11:22:12;2.65;;;1.77;;
38621;SDS011;24380;51.132;5.360;2023-03-16T11:30:22;3.33;;;1.77;;
38621;SDS011;24380;51.132;5.360;2023-03-16T11:32:56;2.70;;;1.80;;
38621;SDS011;24380;51.132;5.360;2023-03-16T11:35:29;6.40;;;2.12;;
38621;SDS011;24380;51.132;5.360;2023-03-16T11:38:20;1.90;;;1.40;;
38621;SDS011;24380;51.132;5.360;2023-03-16T11:46:29;3.12;;;1.60;;
38621;SDS011;24380;51.132;5.360;2023-03-16T11:51:42;2.98;;;1.57;;
38621;SDS011;24380;51.132;5.360;2023-03-16T11:56:59;3.75;;;1.80;;
38621;SDS011;24380;51.132;5.360;2023-03-16T11:59:37;4.17;;;1.70;;
38621;SDS011;24380;51.132;5.360;2023-03-16T12:02:23;2.35;;;1.40;;
38621;SDS011;24380;51.132;5.360;2023-03-16T12:05:15;4.78;;;1.65;;
38621;SDS011;24380;51.132;5.360;2023-03-16T12:10:41;3.77;;;1.30;;
38621;SDS011;24380;51.132;5.360;2023-03-16T12:13:40;1.90;;;1.30;;
38621;SDS011;24380;51.132;5.360;2023-03-16T12:16:22;3.83;;;1.42;;
38621;SDS011;24380;51.132;5.360;2023-03-16T12:19:09;4.40;;;1.60;;
38621;SDS011;24380;51.132;5.360;2023-03-16T12:21:38;3.52;;;1.50;;
38621;SDS011;24380;51.132;5.360;2023-03-16T12:24:12;5.05;;;1.82;;
38621;SDS011;24380;51.132;5.360;2023-03-16T12:26:44;2.42;;;1.40;;
38621;SDS011;24380;51.132;5.360;2023-03-16T12:29:15;2.92;;;1.50;;
38621;SDS011;24380;51.132;5.360;2023-03-16T12:32:00;2.55;;;1.47;;
38621;SDS011;24380;51.132;5.360;2023-03-16T12:34:42;2.02;;;1.22;;
38621;SDS011;24380;51.132;5.360;2023-03-16T12:37:18;3.60;;;1.27;;
38621;SDS011;24380;51.132;5.360;2023-03-16T12:40:08;3.02;;;1.37;;
38621;SDS011;24380;51.132;5.360;2023-03-16T12:42:40;4.10;;;1.25;;
38621;SDS011;24380;51.132;5.360;2023-03-16T12:48:12;2.98;;;1.57;;
38621;SDS011;24380;51.132;5.360;2023-03-16T12:50:53;3.77;;;1.70;;
38621;SDS011;24380;51.132;5.360;2023-03-16T12:55:56;5.10;;;1.50;;
38621;SDS011;24380;51.132;5.360;2023-03-16T13:00:54;3.58;;;1.20;;
38621;SDS011;24380;51.132;5.360;2023-03-16T13:03:24;2.87;;;1.40;;
38621;SDS011;24380;51.132;5.360;2023-03-16T13:05:57;3.37;;;1.30;;
38621;SDS011;24380;51.132;5.360;2023-03-16T13:08:24;5.35;;;1.20;;
38621;SDS011;24380;51.132;5.360;2023-03-16T13:11:26;1.98;;;1.12;;
38621;SDS011;24380;51.132;5.360;2023-03-16T13:13:46;1.82;;;1.00;;
38621;SDS011;24380;51.132;5.360;2023-03-16T13:16:25;5.12;;;1.00;;
38621;SDS011;24380;51.132;5.360;2023-03-16T13:18:54;3.22;;;1.00;;
38621;SDS011;24380;51.132;5.360;2023-03-16T13:21:36;1.82;;;1.00;;
38621;SDS011;24380;51.132;5.360;2023-03-16T13:26:59;1.42;;;1.00;;
38621;SDS011;24380;51.132;5.360;2023-03-16T13:29:28;2.98;;;1.00;;
38621;SDS011;24380;51.132;5.360;2023-03-16T13:31:58;2.85;;;1.05;;
38621;SDS011;24380;51.132;5.360;2023-03-16T13:34:29;5.05;;;1.10;;
38621;SDS011;24380;51.132;5.360;2023-03-16T13:36:58;4.28;;;1.07;;
38621;SDS011;24380;51.132;5.360;2023-03-16T13:39:28;1.60;;;0.90;;
38621;SDS011;24380;51.132;5.360;2023-03-16T13:42:11;4.05;;;1.10;;
38621;SDS011;24380;51.132;5.360;2023-03-16T13:44:39;2.77;;;1.15;;
38621;SDS011;24380;51.132;5.360;2023-03-16T13:47:07;3.27;;;1.20;;
38621;SDS011;24380;51.132;5.360;2023-03-16T13:49:44;2.08;;;1.15;;
38621;SDS011;24380;51.132;5.360;2023-03-16T13:52:15;1.90;;;1.17;;
38621;SDS011;24380;51.132;5.360;2023-03-16T13:54:59;2.98;;;1.22;;
38621;SDS011;24380;51.132;5.360;2023-03-16T13:57:31;2.60;;;1.45;;
38621;SDS011;24380;51.132;5.360;2023-03-16T14:02:34;5.58;;;1.20;;
38621;SDS011;24380;51.132;5.360;2023-03-16T14:07:37;2.02;;;1.05;;
38621;SDS011;24380;51.132;5.360;2023-03-16T14:10:06;7.20;;;1.50;;
38621;SDS011;24380;51.132;5.360;2023-03-16T14:12:36;4.17;;;1.10;;
38621;SDS011;24380;51.132;5.360;2023-03-16T14:15:05;7.37;;;1.50;;
38621;SDS011;24380;51.132;5.360;2023-03-16T14:17:36;3.45;;;1.15;;
38621;SDS011;24380;51.132;5.360;2023-03-16T14:20:04;1.65;;;1.10;;
38621;SDS011;24380;51.132;5.360;2023-03-16T14:22:36;1.52;;;1.10;;
38621;SDS011;24380;51.132;5.360;2023-03-16T14:25:04;3.65;;;1.30;;
38621;SDS011;24380;51.132;5.360;2023-03-16T14:30:16;2.75;;;1.22;;
38621;SDS011;24380;51.132;5.360;2023-03-16T14:32:53;2.80;;;1.10;;
38621;SDS011;24380;51.132;5.360;2023-03-16T14:41:02;2.90;;;1.22;;
38621;SDS011;24380;51.132;5.360;2023-03-16T14:43:50;1.60;;;1.10;;
38621;SDS011;24380;51.132;5.360;2023-03-16T14:46:25;3.12;;;1.20;;
38621;SDS011;24380;51.132;5.360;2023-03-16T14:51:51;2.00;;;0.90;;
38621;SDS011;24380;51.132;5.360;2023-03-16T14:54:21;4.22;;;1.00;;
38621;SDS011;24380;51.132;5.360;2023-03-16T14:56:49;3.20;;;1.00;;
38621;SDS011;24380;51.132;5.360;2023-03-16T14:59:19;3.62;;;0.90;;
38621;SDS011;24380;51.132;5.360;2023-03-16T15:01:48;0.90;;;0.80;;
38621;SDS011;24380;51.132;5.360;2023-03-16T15:04:18;2.20;;;1.20;;
38621;SDS011;24380;51.132;5.360;2023-03-16T15:07:00;2.22;;;0.93;;
38621;SDS011;24380;51.132;5.360;2023-03-16T15:09:31;1.85;;;0.75;;
38621;SDS011;24380;51.132;5.360;2023-03-16T15:12:14;2.80;;;1.02;;
38621;SDS011;24380;51.132;5.360;2023-03-16T15:14:44;3.72;;;1.02;;
38621;SDS011;24380;51.132;5.360;2023-03-16T15:17:31;4.50;;;0.90;;
38621;SDS011;24380;51.132;5.360;2023-03-16T15:19:59;3.10;;;0.60;;
38621;SDS011;24380;51.132;5.360;2023-03-16T15:22:29;2.15;;;0.82;;
38621;SDS011;24380;51.132;5.360;2023-03-16T15:24:58;2.95;;;0.98;;
38621;SDS011;24380;51.132;5.360;2023-03-16T15:30:00;2.90;;;1.10;;
38621;SDS011;24380;51.132;5.360;2023-03-16T15:32:27;1.77;;;1.10;;
38621;SDS011;24380;51.132;5.360;2023-03-16T15:34:55;2.17;;;0.90;;
38621;SDS011;24380;51.132;5.360;2023-03-16T15:37:23;1.60;;;0.90;;
38621;SDS011;24380;51.132;5.360;2023-03-16T15:39:52;1.05;;;0.80;;
38621;SDS011;24380;51.132;5.360;2023-03-16T15:42:19;1.22;;;0.90;;
38621;SDS011;24380;51.132;5.360;2023-03-16T15:44:47;3.50;;;1.05;;
38621;SDS011;24380;51.132;5.360;2023-03-16T15:47:14;1.95;;;1.00;;
38621;SDS011;24380;51.132;5.360;2023-03-16T15:49:42;1.77;;;1.00;;
38621;SDS011;24380;51.132;5.360;2023-03-16T15:52:27;2.40;;;0.85;;
38621;SDS011;24380;51.132;5.360;2023-03-16T15:54:58;2.75;;;1.10;;
38621;SDS011;24380;51.132;5.360;2023-03-16T15:57:27;3.00;;;1.20;;
38621;SDS011;24380;51.132;5.360;2023-03-16T15:59:56;1.42;;;0.85;;
38621;SDS011;24380;51.132;5.360;2023-03-16T16:02:25;1.50;;;0.90;;
38621;SDS011;24380;51.132;5.360;2023-03-16T16:04:57;3.92;;;0.93;;
38621;SDS011;24380;51.132;5.360;2023-03-16T16:07:25;1.63;;;0.90;;
38621;SDS011;24380;51.132;5.360;2023-03-16T16:09:53;1.85;;;0.90;;
38621;SDS011;24380;51.132;5.360;2023-03-16T16:12:21;1.35;;;1.10;;
38621;SDS011;24380;51.132;5.360;2023-03-16T16:14:50;1.83;;;1.00;;
38621;SDS011;24380;51.132;5.360;2023-03-16T16:17:18;1.47;;;1.05;;
38621;SDS011;24380;51.132;5.360;2023-03-16T16:19:47;2.45;;;1.05;;
38621;SDS011;24380;51.132;5.360;2023-03-16T16:22:15;3.08;;;1.05;;
38621;SDS011;24380;51.132;5.360;2023-03-16T16:24:44;3.72;;;0.85;;
38621;SDS011;24380;51.132;5.360;2023-03-16T16:27:12;3.77;;;0.90;;